createdAt,value
2018-12-27T00:01:37.295Z,275.60
2018-12-27T00:04:18.057Z,247.87
2018-12-27T00:06:58.643Z,263.57
2018-12-27T00:09:38.962Z,253.43
2018-12-27T00:12:20.203Z,247.93
2018-12-27T00:15:01.250Z,250.80
2018-12-27T00:17:42.094Z,257.83
2018-12-27T00:20:23.048Z,257.93
2018-12-27T00:23:03.747Z,264.77
2018-12-27T00:25:44.499Z,255.70
2018-12-27T00:28:25.293Z,253.47
2018-12-27T00:31:06.040Z,273.73
2018-12-27T00:33:46.565Z,262.03
2018-12-27T00:36:26.568Z,241.93
2018-12-27T00:39:07.657Z,247.77
2018-12-27T00:41:48.239Z,247.83
2018-12-27T00:44:28.654Z,260.00
2018-12-27T00:47:09.532Z,251.53
2018-12-27T00:49:50.649Z,248.60
2018-12-27T00:52:31.809Z,253.93
2018-12-27T00:55:13.297Z,252.97
2018-12-27T00:57:54.255Z,269.17
2018-12-27T01:00:34.500Z,287.00
2018-12-27T01:03:15.554Z,267.57
2018-12-27T01:05:56.074Z,268.70
2018-12-27T01:08:36.905Z,257.03
2018-12-27T01:11:18.115Z,271.03
2018-12-27T01:13:59.036Z,272.00
2018-12-27T01:16:40.255Z,347.40
2018-12-27T01:19:20.927Z,350.73
2018-12-27T01:22:01.659Z,353.83
2018-12-27T01:24:42.921Z,361.13
2018-12-27T01:27:23.522Z,346.23
2018-12-27T01:30:04.790Z,354.63
2018-12-27T01:32:45.765Z,350.47
2018-12-27T01:35:26.860Z,306.03
2018-12-27T01:38:07.962Z,280.70
2018-12-27T01:40:48.974Z,302.97
2018-12-27T01:43:29.698Z,316.37
2018-12-27T01:46:10.894Z,295.47
2018-12-27T01:48:52.167Z,294.67
2018-12-27T01:51:33.492Z,302.00
2018-12-27T01:54:14.576Z,321.73
2018-12-27T01:56:55.700Z,323.23
2018-12-27T01:59:36.811Z,334.07
2018-12-27T02:02:17.697Z,342.10
2018-12-27T02:04:58.693Z,330.93
2018-12-27T02:07:39.887Z,321.47
2018-12-27T02:10:20.957Z,319.07
2018-12-27T02:13:02.231Z,316.47
2018-12-27T02:15:43.393Z,310.50
2018-12-27T02:18:25.000Z,320.33
2018-12-27T02:21:06.096Z,299.07
2018-12-27T02:23:46.652Z,297.60
2018-12-27T02:26:27.352Z,298.03
2018-12-27T02:29:08.162Z,298.70
2018-12-27T02:31:49.171Z,286.87
2018-12-27T02:34:29.494Z,282.53
2018-12-27T02:37:10.727Z,285.20
2018-12-27T02:39:51.699Z,294.07
2018-12-27T02:42:32.097Z,289.00
2018-12-27T02:45:12.202Z,285.17
2018-12-27T02:47:52.493Z,292.17
2018-12-27T02:50:33.100Z,289.40
2018-12-27T02:53:13.535Z,299.30
2018-12-27T02:55:54.220Z,271.63
2018-12-27T02:58:34.877Z,284.03
2018-12-27T03:01:15.864Z,282.70
2018-12-27T03:03:56.640Z,267.53
2018-12-27T03:06:38.099Z,262.83
2018-12-27T03:09:18.771Z,257.47
2018-12-27T03:12:00.012Z,255.57
2018-12-27T03:14:41.042Z,257.37
2018-12-27T03:17:21.616Z,240.70
2018-12-27T03:20:02.579Z,245.10
2018-12-27T03:22:43.016Z,246.80
2018-12-27T03:25:24.166Z,245.00
2018-12-27T03:28:05.178Z,239.33
2018-12-27T03:30:46.420Z,234.27
2018-12-27T03:33:27.442Z,233.37
2018-12-27T03:36:08.095Z,217.10
2018-12-27T03:38:49.094Z,202.40
2018-12-27T03:41:31.261Z,195.30
2018-12-27T03:44:11.732Z,200.33
2018-12-27T03:46:52.810Z,191.43
2018-12-27T03:49:33.797Z,192.53
2018-12-27T03:52:14.849Z,186.60
2018-12-27T03:54:55.915Z,195.47
2018-12-27T03:57:37.305Z,190.57
2018-12-27T04:00:18.280Z,185.47
2018-12-27T04:02:59.164Z,182.23
2018-12-27T04:05:40.370Z,182.37
2018-12-27T04:08:21.562Z,168.53
2018-12-27T04:11:02.133Z,163.33
2018-12-27T04:13:43.137Z,165.03
2018-12-27T04:16:24.322Z,149.87
2018-12-27T04:19:05.370Z,145.77
2018-12-27T04:21:46.395Z,141.40
2018-12-27T04:24:27.152Z,142.67
2018-12-27T04:27:08.175Z,145.30
2018-12-27T04:29:49.195Z,141.70
2018-12-27T04:32:30.086Z,141.20
2018-12-27T04:35:10.845Z,135.27
2018-12-27T04:37:52.324Z,131.13
2018-12-27T04:40:33.289Z,130.30
2018-12-27T04:43:14.381Z,133.90
2018-12-27T04:45:55.343Z,133.47
2018-12-27T04:48:36.219Z,123.77
2018-12-27T04:51:17.257Z,117.20
2018-12-27T04:53:57.964Z,114.63
2018-12-27T04:56:38.859Z,110.83
2018-12-27T04:59:19.295Z,106.07
2018-12-27T05:02:00.383Z,95.80
2018-12-27T05:04:41.020Z,91.67
2018-12-27T05:07:22.247Z,85.63
2018-12-27T05:10:02.702Z,84.80
2018-12-27T05:12:43.658Z,83.73
2018-12-27T05:15:24.219Z,83.43
2018-12-27T05:18:04.499Z,87.57
2018-12-27T05:20:45.545Z,84.80
2018-12-27T05:23:26.404Z,83.83
2018-12-27T05:26:07.183Z,85.70
2018-12-27T05:28:47.167Z,95.33
2018-12-27T05:31:27.118Z,94.40
2018-12-27T05:34:08.051Z,99.97
2018-12-27T05:36:48.198Z,95.27
2018-12-27T05:39:29.282Z,96.97
2018-12-27T05:42:09.846Z,94.13
2018-12-27T05:44:50.009Z,93.90
2018-12-27T05:47:30.672Z,82.80
2018-12-27T05:50:11.610Z,85.07
2018-12-27T05:52:52.246Z,79.00
2018-12-27T05:55:34.504Z,80.70
2018-12-27T05:58:13.819Z,80.10
2018-12-27T06:00:54.206Z,78.80
2018-12-27T06:03:34.279Z,88.83
2018-12-27T06:06:15.129Z,85.67
2018-12-27T06:08:55.329Z,87.73
2018-12-27T06:11:35.881Z,85.77
2018-12-27T06:14:16.285Z,88.13
2018-12-27T06:16:57.060Z,84.23
2018-12-27T06:19:37.244Z,92.17
2018-12-27T06:25:01.331Z,89.93
2018-12-27T06:27:41.779Z,85.67
2018-12-27T06:30:22.462Z,92.70
2018-12-27T06:33:02.795Z,91.97
2018-12-27T06:35:43.274Z,90.77
2018-12-27T06:38:23.472Z,87.43
2018-12-27T06:41:03.778Z,89.00
2018-12-27T06:43:43.966Z,90.07
2018-12-27T06:46:24.051Z,90.97
2018-12-27T06:49:04.454Z,87.60
2018-12-27T06:51:44.635Z,88.63
2018-12-27T06:54:26.366Z,88.17
2018-12-27T06:57:06.661Z,87.90
2018-12-27T06:59:47.034Z,88.90
2018-12-27T07:02:28.517Z,86.73
2018-12-27T07:05:08.364Z,86.70
2018-12-27T07:07:48.917Z,90.03
2018-12-27T07:10:29.441Z,92.73
2018-12-27T07:13:09.775Z,90.37
2018-12-27T07:15:50.204Z,88.47
2018-12-27T07:18:31.083Z,86.60
2018-12-27T07:21:11.332Z,85.90
2018-12-27T07:23:52.721Z,84.33
2018-12-27T07:26:33.890Z,89.47
2018-12-27T07:29:16.737Z,85.20
2018-12-27T07:31:59.618Z,88.77
2018-12-27T07:34:40.328Z,85.57
2018-12-27T07:37:20.327Z,84.63
2018-12-27T07:40:01.033Z,84.63
2018-12-27T07:42:42.165Z,84.43
2018-12-27T07:45:22.650Z,85.37
2018-12-27T07:48:02.870Z,84.50
2018-12-27T07:50:42.858Z,87.47
2018-12-27T07:53:23.420Z,85.40
2018-12-27T07:56:04.096Z,83.77
2018-12-27T07:58:44.532Z,83.33
2018-12-27T08:01:25.003Z,84.57
2018-12-27T08:04:05.566Z,84.53
2018-12-27T08:06:46.526Z,83.50
2018-12-27T08:09:26.617Z,85.13
2018-12-27T08:12:07.175Z,87.30
2018-12-27T08:14:47.931Z,87.07
2018-12-27T08:17:28.790Z,90.67
2018-12-27T08:20:09.843Z,88.17
2018-12-27T08:22:50.254Z,87.50
2018-12-27T08:25:30.824Z,83.77
2018-12-27T08:28:11.172Z,81.77
2018-12-27T08:30:52.259Z,86.47
2018-12-27T08:33:32.596Z,83.23
2018-12-27T08:36:12.956Z,81.90
2018-12-27T08:38:53.414Z,85.43
2018-12-27T08:41:34.703Z,85.13
2018-12-27T08:44:15.067Z,86.17
2018-12-27T08:46:56.573Z,85.30
2018-12-27T08:49:37.363Z,86.60
2018-12-27T08:52:17.432Z,84.10
2018-12-27T08:54:57.936Z,88.67
2018-12-27T08:57:38.317Z,88.77
2018-12-27T09:00:18.922Z,91.23
2018-12-27T09:02:59.839Z,91.27
2018-12-27T09:05:40.170Z,89.60
2018-12-27T09:08:21.623Z,91.17
2018-12-27T09:11:03.149Z,89.27
2018-12-27T09:13:43.613Z,88.33
2018-12-27T09:16:23.968Z,88.10
2018-12-27T09:19:04.840Z,86.40
2018-12-27T09:21:45.196Z,86.63
2018-12-27T09:24:28.430Z,87.97
2018-12-27T09:27:09.203Z,83.40
2018-12-27T09:29:49.456Z,83.27
2018-12-27T09:32:29.927Z,78.70
2018-12-27T09:35:10.249Z,81.70
2018-12-27T09:37:50.850Z,83.23
2018-12-27T09:40:31.209Z,83.10
2018-12-27T09:43:11.689Z,80.20
2018-12-27T09:45:52.333Z,83.00
2018-12-27T09:48:32.773Z,83.53
2018-12-27T09:51:13.260Z,81.17
2018-12-27T09:53:53.819Z,80.83
2018-12-27T09:56:34.614Z,80.73
2018-12-27T09:59:15.535Z,77.20
2018-12-27T10:01:56.530Z,78.30
2018-12-27T10:04:37.523Z,80.53
2018-12-27T10:07:17.761Z,77.13
2018-12-27T10:09:58.326Z,77.00
2018-12-27T10:12:38.986Z,78.37
2018-12-27T10:15:19.363Z,83.50
2018-12-27T10:18:00.050Z,76.80
2018-12-27T10:20:42.639Z,93.87
2018-12-27T10:23:25.352Z,95.70
2018-12-27T10:26:06.027Z,84.73
2018-12-27T10:28:46.783Z,84.33
2018-12-27T10:31:27.032Z,88.97
2018-12-27T10:34:07.283Z,118.00
2018-12-27T10:36:47.777Z,133.53
2018-12-27T10:39:28.104Z,108.27
2018-12-27T10:42:08.827Z,102.73
2018-12-27T10:44:49.342Z,96.17
2018-12-27T10:47:29.775Z,95.70
2018-12-27T10:50:10.032Z,90.13
2018-12-27T10:52:50.654Z,87.60
2018-12-27T10:55:31.204Z,88.30
2018-12-27T10:58:12.057Z,122.73
2018-12-27T11:00:52.619Z,93.47
2018-12-27T11:03:34.304Z,116.33
2018-12-27T11:06:14.631Z,116.27
2018-12-27T11:08:55.286Z,113.77
2018-12-27T11:11:35.725Z,97.20
2018-12-27T11:14:16.157Z,89.83
2018-12-27T11:16:56.966Z,89.80
2018-12-27T11:19:37.409Z,92.80
2018-12-27T11:22:17.999Z,95.63
2018-12-27T11:24:58.316Z,94.67
2018-12-27T11:27:38.975Z,91.73
2018-12-27T11:30:19.208Z,96.97
2018-12-27T11:32:59.778Z,129.50
2018-12-27T11:35:40.125Z,102.93
2018-12-27T11:38:20.253Z,102.03
2018-12-27T11:41:00.967Z,135.60
2018-12-27T11:43:41.544Z,116.73
2018-12-27T11:46:22.232Z,103.77
2018-12-27T11:49:03.102Z,102.23
2018-12-27T11:51:43.700Z,129.40
2018-12-27T11:54:24.234Z,115.00
2018-12-27T11:57:04.803Z,106.67
2018-12-27T11:59:45.226Z,102.33
2018-12-27T12:02:31.073Z,104.43
2018-12-27T12:05:05.812Z,106.23
2018-12-27T12:07:46.342Z,103.10
2018-12-27T12:10:26.646Z,113.97
2018-12-27T12:13:07.122Z,136.30
2018-12-27T12:15:47.516Z,149.40
2018-12-27T12:18:27.657Z,125.43
2018-12-27T12:21:08.614Z,113.50
2018-12-27T12:23:49.114Z,112.77
2018-12-27T12:26:29.580Z,121.37
2018-12-27T12:29:10.205Z,126.23
2018-12-27T12:31:50.564Z,139.00
2018-12-27T12:34:30.717Z,163.37
2018-12-27T12:37:13.930Z,129.40
2018-12-27T12:39:52.260Z,126.50
2018-12-27T12:42:33.236Z,127.27
2018-12-27T12:45:14.017Z,131.07
2018-12-27T12:47:54.377Z,128.67
2018-12-27T12:50:34.852Z,128.73
2018-12-27T12:53:15.699Z,126.80
2018-12-27T12:55:56.176Z,132.27
2018-12-27T12:58:36.531Z,192.53
2018-12-27T13:01:16.974Z,156.40
2018-12-27T13:03:57.362Z,142.80
2018-12-27T13:06:40.755Z,136.10
2018-12-27T13:09:23.125Z,138.77
2018-12-27T13:12:03.676Z,143.27
2018-12-27T13:14:43.973Z,142.63
2018-12-27T13:17:24.674Z,150.93
2018-12-27T13:20:05.257Z,156.33
2018-12-27T13:22:45.605Z,160.93
2018-12-27T13:25:26.178Z,150.50
2018-12-27T13:28:06.853Z,155.30
2018-12-27T13:30:47.521Z,156.77
2018-12-27T13:33:28.169Z,146.43
2018-12-27T13:36:08.734Z,145.80
2018-12-27T13:38:49.509Z,154.13
2018-12-27T13:41:30.184Z,143.97
2018-12-27T13:44:10.532Z,144.30
2018-12-27T13:46:57.577Z,163.83
2018-12-27T13:49:38.112Z,175.57
2018-12-27T13:52:20.115Z,155.47
2018-12-27T13:55:00.761Z,152.23
2018-12-27T13:57:41.815Z,158.27
2018-12-27T14:00:22.887Z,151.30
2018-12-27T14:03:11.304Z,153.70
2018-12-27T14:05:52.971Z,145.80
2018-12-27T14:08:33.249Z,146.57
2018-12-27T14:11:14.064Z,145.83
2018-12-27T14:13:53.970Z,153.50
2018-12-27T14:16:36.656Z,154.87
2018-12-27T14:19:16.483Z,151.50
2018-12-27T14:21:56.666Z,153.17
2018-12-27T14:24:36.809Z,155.50
2018-12-27T14:27:17.130Z,152.60
2018-12-27T14:29:57.173Z,155.00
2018-12-27T14:32:37.601Z,161.50
2018-12-27T14:35:25.971Z,163.30
2018-12-27T14:38:07.272Z,159.37
2018-12-27T14:40:47.461Z,171.27
2018-12-27T14:43:27.924Z,178.27
2018-12-27T14:46:07.868Z,178.87
2018-12-27T14:48:47.939Z,182.00
2018-12-27T14:51:27.953Z,173.83
2018-12-27T14:54:08.257Z,164.60
2018-12-27T14:56:48.375Z,162.37
2018-12-27T14:59:28.441Z,174.17
2018-12-27T15:02:08.596Z,180.43
2018-12-27T15:04:48.643Z,200.00
2018-12-27T15:07:29.227Z,188.40
2018-12-27T15:10:09.502Z,178.77
2018-12-27T15:12:49.596Z,179.50
2018-12-27T15:15:30.249Z,175.93
2018-12-27T15:18:10.291Z,178.47
2018-12-27T15:20:50.545Z,188.13
2018-12-27T15:23:31.241Z,194.83
2018-12-27T15:26:11.282Z,229.13
2018-12-27T15:28:54.572Z,229.47
2018-12-27T15:31:35.204Z,294.87
2018-12-27T15:34:15.246Z,244.10
2018-12-27T15:36:55.723Z,241.97
2018-12-27T15:39:35.972Z,219.23
2018-12-27T15:42:15.961Z,214.13
2018-12-27T15:44:56.079Z,212.57
2018-12-27T15:47:36.346Z,220.73
2018-12-27T15:50:16.744Z,216.70
2018-12-27T15:52:57.149Z,249.73
2018-12-27T15:55:37.108Z,232.80
2018-12-27T15:58:17.654Z,238.60
2018-12-27T16:00:58.015Z,249.97
2018-12-27T16:03:38.359Z,316.27
2018-12-27T16:06:18.935Z,273.73
2018-12-27T16:08:59.104Z,263.97
2018-12-27T16:11:39.988Z,227.67
2018-12-27T16:14:21.137Z,208.60
2018-12-27T16:17:03.935Z,209.27
2018-12-27T16:19:44.314Z,214.67
2018-12-27T16:22:25.403Z,209.67
2018-12-27T16:25:06.417Z,210.70
2018-12-27T16:27:47.334Z,234.07
2018-12-27T16:30:27.369Z,204.33
2018-12-27T16:33:08.305Z,209.77
2018-12-27T16:35:48.784Z,231.17
2018-12-27T16:38:29.710Z,214.67
2018-12-27T16:41:10.723Z,215.47
2018-12-27T16:43:51.683Z,211.73
2018-12-27T16:46:32.329Z,219.53
2018-12-27T16:49:12.962Z,214.83
2018-12-27T16:51:54.056Z,211.10
2018-12-27T16:54:34.609Z,206.00
2018-12-27T16:57:19.698Z,214.70
2018-12-27T16:59:57.134Z,219.20
2018-12-27T17:02:38.943Z,240.93
2018-12-27T17:05:19.561Z,283.87
2018-12-27T17:08:00.808Z,250.50
2018-12-27T17:10:42.318Z,232.43
2018-12-27T17:13:22.954Z,225.50
2018-12-27T17:16:03.846Z,210.80
2018-12-27T17:18:44.899Z,214.07
2018-12-27T17:21:25.581Z,225.70
2018-12-27T17:24:06.416Z,245.83
2018-12-27T17:26:47.532Z,228.67
2018-12-27T17:29:28.052Z,222.37
2018-12-27T17:32:09.116Z,221.93
2018-12-27T17:34:49.454Z,220.60
2018-12-27T17:37:29.902Z,252.93
2018-12-27T17:40:09.764Z,245.80
2018-12-27T17:42:50.600Z,220.73
2018-12-27T17:45:31.537Z,219.20
2018-12-27T17:48:12.644Z,216.67
2018-12-27T17:50:53.773Z,215.70
2018-12-27T17:53:34.394Z,211.67
2018-12-27T17:56:14.862Z,204.40
2018-12-27T17:58:56.016Z,213.37
2018-12-27T18:01:37.012Z,209.93
2018-12-27T18:04:17.319Z,214.67
2018-12-27T18:06:58.022Z,226.43
2018-12-27T18:09:39.054Z,215.37
2018-12-27T18:12:19.337Z,211.27
2018-12-27T18:15:05.575Z,284.40
2018-12-27T18:17:47.929Z,237.93
2018-12-27T18:20:35.286Z,229.63
2018-12-27T18:23:19.528Z,220.53
2018-12-27T18:26:07.621Z,220.00
2018-12-27T18:28:50.013Z,253.07
2018-12-27T18:31:30.651Z,224.10
2018-12-27T18:34:11.124Z,239.67
2018-12-27T18:36:51.478Z,230.77
2018-12-27T18:39:31.782Z,222.47
2018-12-27T18:42:13.008Z,213.90
2018-12-27T18:44:53.576Z,229.37
2018-12-27T18:47:38.758Z,223.77
2018-12-27T18:50:25.911Z,229.13
2018-12-27T18:53:15.498Z,218.40
2018-12-27T18:56:05.169Z,226.97
2018-12-27T18:58:50.772Z,244.73
2018-12-27T19:01:39.498Z,224.90
2018-12-27T19:04:29.456Z,217.00
2018-12-27T19:07:16.817Z,228.97
2018-12-27T19:10:02.969Z,234.53
2018-12-27T19:12:48.333Z,242.13
2018-12-27T19:15:36.003Z,233.77
2018-12-27T19:18:19.534Z,224.03
2018-12-27T19:21:05.536Z,236.77
2018-12-27T19:26:35.176Z,241.27
2018-12-27T19:29:21.294Z,240.20
2018-12-27T19:32:06.412Z,222.60
2018-12-27T19:34:48.055Z,234.13
2018-12-27T19:37:31.658Z,234.30
2018-12-27T19:40:14.718Z,236.20
2018-12-27T19:42:56.365Z,241.20
2018-12-27T19:45:37.192Z,236.27
2018-12-27T19:48:20.863Z,227.93
2018-12-27T19:51:02.727Z,231.03
2018-12-27T19:53:45.433Z,243.27
2018-12-27T19:56:29.680Z,257.23
2018-12-27T19:59:11.530Z,276.00
2018-12-27T20:01:54.376Z,262.50
2018-12-27T20:04:35.568Z,258.30
2018-12-27T20:07:16.928Z,283.43
2018-12-27T20:09:57.175Z,275.50
2018-12-27T20:12:37.660Z,273.60
2018-12-27T20:15:18.230Z,250.83
2018-12-27T20:17:58.460Z,244.53
2018-12-27T20:20:38.842Z,253.20
2018-12-27T20:23:18.980Z,250.03
2018-12-27T20:26:00.450Z,283.27
2018-12-27T20:28:40.751Z,271.17
2018-12-27T20:31:21.086Z,263.33
2018-12-27T20:34:00.967Z,273.30
2018-12-27T20:36:41.404Z,287.90
2018-12-27T20:39:21.658Z,285.97
2018-12-27T20:42:01.719Z,284.43
2018-12-27T20:44:41.645Z,274.87
2018-12-27T20:47:22.212Z,268.97
2018-12-27T20:50:02.582Z,273.20
2018-12-27T20:52:42.841Z,280.23
2018-12-27T20:55:23.102Z,268.90
2018-12-27T20:58:03.143Z,280.37
2018-12-27T21:00:43.528Z,284.63
2018-12-27T21:03:24.578Z,281.10
2018-12-27T21:06:04.938Z,282.80
2018-12-27T21:08:44.844Z,288.23
2018-12-27T21:11:25.055Z,303.27
2018-12-27T21:14:05.247Z,298.00
2018-12-27T21:16:45.559Z,291.27
2018-12-27T21:19:25.837Z,289.80
2018-12-27T21:22:05.978Z,295.87
2018-12-27T21:24:46.859Z,284.77
2018-12-27T21:27:27.297Z,298.07
2018-12-27T21:30:07.992Z,308.60
2018-12-27T21:32:47.980Z,303.47
2018-12-27T21:35:28.447Z,294.90
2018-12-27T21:38:08.158Z,292.90
2018-12-27T21:40:48.800Z,283.17
2018-12-27T21:43:29.353Z,271.07
2018-12-27T21:46:09.517Z,286.87
2018-12-27T21:48:49.557Z,290.37
2018-12-27T21:51:30.766Z,292.37
2018-12-27T21:54:11.410Z,282.80
2018-12-27T21:56:52.497Z,270.17
2018-12-27T21:59:33.007Z,273.37
2018-12-27T22:02:13.001Z,262.30
2018-12-27T22:04:53.450Z,253.87
2018-12-27T22:07:33.881Z,260.67
2018-12-27T22:10:14.683Z,255.67
2018-12-27T22:12:54.748Z,252.90
2018-12-27T22:15:34.921Z,260.23
2018-12-27T22:18:15.751Z,258.70
2018-12-27T22:20:55.856Z,253.33
2018-12-27T22:23:35.745Z,250.17
2018-12-27T22:26:16.366Z,256.80
2018-12-27T22:28:56.686Z,262.10
2018-12-27T22:31:37.363Z,259.80
2018-12-27T22:34:17.413Z,258.60
2018-12-27T22:36:58.033Z,251.23
2018-12-27T22:39:38.636Z,246.57
2018-12-27T22:42:18.977Z,246.37
2018-12-27T22:44:59.318Z,241.00
2018-12-27T22:47:39.519Z,231.93
2018-12-27T22:50:20.221Z,247.50
2018-12-27T22:53:00.299Z,246.00
2018-12-27T22:55:40.682Z,247.47
2018-12-27T22:58:21.337Z,238.03
2018-12-27T23:01:01.723Z,238.60
2018-12-27T23:03:42.163Z,243.77
2018-12-27T23:06:22.729Z,240.77
2018-12-27T23:09:02.922Z,234.63
2018-12-27T23:11:43.683Z,237.37
2018-12-27T23:14:24.009Z,240.33
2018-12-27T23:17:04.422Z,242.47
2018-12-27T23:19:44.460Z,238.20
2018-12-27T23:22:24.535Z,231.43
2018-12-27T23:25:04.536Z,232.83
2018-12-27T23:27:45.605Z,222.50
2018-12-27T23:30:25.698Z,219.60
2018-12-27T23:33:06.312Z,215.93
2018-12-27T23:35:46.454Z,223.43
2018-12-27T23:38:26.374Z,224.10
2018-12-27T23:41:06.532Z,216.07
2018-12-27T23:43:47.445Z,213.67
2018-12-27T23:46:27.489Z,218.73
2018-12-27T23:49:07.554Z,219.23
2018-12-27T23:51:48.128Z,217.37
2018-12-27T23:54:28.899Z,215.40
2018-12-27T23:57:09.782Z,225.40
2018-12-27T23:59:49.997Z,230.33
